sensor_id;sensor_type;location;lat;lon;timestamp;temperature;humidity
20035;DHT22;10178;48.034;9.800;2023-04-24T00:01:28;11.40;99.90
20035;DHT22;10178;48.034;9.800;2023-04-24T00:03:55;11.50;99.90
20035;DHT22;10178;48.034;9.800;2023-04-24T00:06:27;11.50;99.90
20035;DHT22;10178;48.034;9.800;2023-04-24T00:09:00;11.20;99.90
20035;DHT22;10178;48.034;9.800;2023-04-24T00:11:26;11.40;99.90
20035;DHT22;10178;48.034;9.800;2023-04-24T00:13:52;11.60;99.90
20035;DHT22;10178;48.034;9.800;2023-04-24T00:16:18;11.50;99.90
20035;DHT22;10178;48.034;9.800;2023-04-24T00:18:43;11.80;99.90
20035;DHT22;10178;48.034;9.800;2023-04-24T00:21:10;12.40;99.90
20035;DHT22;10178;48.034;9.800;2023-04-24T00:23:36;12.30;99.90
20035;DHT22;10178;48.034;9.800;2023-04-24T00:26:02;11.90;99.90
20035;DHT22;10178;48.034;9.800;2023-04-24T00:28:27;11.50;99.90
20035;DHT22;10178;48.034;9.800;2023-04-24T00:30:53;11.80;99.90
20035;DHT22;10178;48.034;9.800;2023-04-24T00:33:19;11.60;99.90
20035;DHT22;10178;48.034;9.800;2023-04-24T00:35:45;11.60;99.90
20035;DHT22;10178;48.034;9.800;2023-04-24T00:38:11;11.40;99.90
20035;DHT22;10178;48.034;9.800;2023-04-24T00:40:36;11.10;99.90
20035;DHT22;10178;48.034;9.800;2023-04-24T00:43:02;10.80;99.90
20035;DHT22;10178;48.034;9.800;2023-04-24T00:45:28;10.50;99.90
20035;DHT22;10178;48.034;9.800;2023-04-24T00:47:53;10.20;99.90
20035;DHT22;10178;48.034;9.800;2023-04-24T00:50:20;10.50;99.90
20035;DHT22;10178;48.034;9.800;2023-04-24T00:52:46;10.90;99.90
20035;DHT22;10178;48.034;9.800;2023-04-24T00:55:12;10.50;99.90
20035;DHT22;10178;48.034;9.800;2023-04-24T00:57:38;10.40;99.90
20035;DHT22;10178;48.034;9.800;2023-04-24T01:00:06;10.60;99.90
20035;DHT22;10178;48.034;9.800;2023-04-24T01:02:37;10.60;99.90
20035;DHT22;10178;48.034;9.800;2023-04-24T01:05:06;11.00;99.90
20035;DHT22;10178;48.034;9.800;2023-04-24T01:07:32;11.00;99.90
20035;DHT22;10178;48.034;9.800;2023-04-24T01:09:58;10.80;99.90
20035;DHT22;10178;48.034;9.800;2023-04-24T01:12:24;10.70;99.90
20035;DHT22;10178;48.034;9.800;2023-04-24T01:14:50;11.20;99.90
20035;DHT22;10178;48.034;9.800;2023-04-24T01:17:16;11.40;99.90
20035;DHT22;10178;48.034;9.800;2023-04-24T01:19:42;11.60;99.90
20035;DHT22;10178;48.034;9.800;2023-04-24T01:22:14;11.40;99.90
20035;DHT22;10178;48.034;9.800;2023-04-24T01:24:41;11.50;99.90
20035;DHT22;10178;48.034;9.800;2023-04-24T01:27:08;11.30;99.90
20035;DHT22;10178;48.034;9.800;2023-04-24T01:29:34;11.30;99.90
20035;DHT22;10178;48.034;9.800;2023-04-24T01:32:00;11.60;99.90
20035;DHT22;10178;48.034;9.800;2023-04-24T01:34:26;12.10;99.90
20035;DHT22;10178;48.034;9.800;2023-04-24T01:36:51;12.40;99.90
20035;DHT22;10178;48.034;9.800;2023-04-24T01:39:17;12.40;99.90
20035;DHT22;10178;48.034;9.800;2023-04-24T01:41:43;12.00;99.90
20035;DHT22;10178;48.034;9.800;2023-04-24T01:44:09;12.10;99.90
20035;DHT22;10178;48.034;9.800;2023-04-24T01:46:35;12.20;99.90
20035;DHT22;10178;48.034;9.800;2023-04-24T01:49:01;12.20;99.90
20035;DHT22;10178;48.034;9.800;2023-04-24T01:51:27;12.40;99.90
20035;DHT22;10178;48.034;9.800;2023-04-24T01:53:53;12.00;99.90
20035;DHT22;10178;48.034;9.800;2023-04-24T01:56:20;12.10;99.90
20035;DHT22;10178;48.034;9.800;2023-04-24T01:58:46;12.10;99.90
20035;DHT22;10178;48.034;9.800;2023-04-24T02:01:19;11.70;99.90
20035;DHT22;10178;48.034;9.800;2023-04-24T02:03:45;11.50;99.90
20035;DHT22;10178;48.034;9.800;2023-04-24T02:06:11;11.50;99.90
20035;DHT22;10178;48.034;9.800;2023-04-24T02:08:36;11.10;99.90
20035;DHT22;10178;48.034;9.800;2023-04-24T02:11:02;10.80;99.90
20035;DHT22;10178;48.034;9.800;2023-04-24T02:13:28;10.90;99.90
20035;DHT22;10178;48.034;9.800;2023-04-24T02:15:54;11.10;99.90
20035;DHT22;10178;48.034;9.800;2023-04-24T02:18:19;11.40;99.90
20035;DHT22;10178;48.034;9.800;2023-04-24T02:20:45;11.60;99.90
20035;DHT22;10178;48.034;9.800;2023-04-24T02:23:11;11.80;99.90
20035;DHT22;10178;48.034;9.800;2023-04-24T02:25:38;11.70;99.90
20035;DHT22;10178;48.034;9.800;2023-04-24T02:28:04;11.60;99.90
20035;DHT22;10178;48.034;9.800;2023-04-24T02:30:29;12.00;99.90
20035;DHT22;10178;48.034;9.800;2023-04-24T02:32:55;11.90;99.90
20035;DHT22;10178;48.034;9.800;2023-04-24T02:35:21;11.90;99.90
20035;DHT22;10178;48.034;9.800;2023-04-24T02:37:47;11.50;99.90
20035;DHT22;10178;48.034;9.800;2023-04-24T02:40:12;11.50;99.90
20035;DHT22;10178;48.034;9.800;2023-04-24T02:42:38;11.00;99.90
20035;DHT22;10178;48.034;9.800;2023-04-24T02:45:04;10.60;99.90
20035;DHT22;10178;48.034;9.800;2023-04-24T02:47:30;10.10;99.90
20035;DHT22;10178;48.034;9.800;2023-04-24T02:49:56;10.30;99.90
20035;DHT22;10178;48.034;9.800;2023-04-24T02:52:21;10.10;99.90
20035;DHT22;10178;48.034;9.800;2023-04-24T02:54:47;10.10;99.90
20035;DHT22;10178;48.034;9.800;2023-04-24T02:57:12;10.20;99.90
20035;DHT22;10178;48.034;9.800;2023-04-24T02:59:38;10.10;99.90
20035;DHT22;10178;48.034;9.800;2023-04-24T03:02:04;10.20;99.90
20035;DHT22;10178;48.034;9.800;2023-04-24T03:04:29;10.20;99.90
20035;DHT22;10178;48.034;9.800;2023-04-24T03:06:55;10.10;99.90
20035;DHT22;10178;48.034;9.800;2023-04-24T03:09:21;9.90;99.90
20035;DHT22;10178;48.034;9.800;2023-04-24T03:11:47;9.80;99.90
20035;DHT22;10178;48.034;9.800;2023-04-24T03:14:14;9.70;99.90
20035;DHT22;10178;48.034;9.800;2023-04-24T03:16:40;9.60;99.90
20035;DHT22;10178;48.034;9.800;2023-04-24T03:19:05;9.70;99.90
20035;DHT22;10178;48.034;9.800;2023-04-24T03:21:31;9.60;99.90
20035;DHT22;10178;48.034;9.800;2023-04-24T03:23:57;9.70;99.90
20035;DHT22;10178;48.034;9.800;2023-04-24T03:26:22;9.80;99.90
20035;DHT22;10178;48.034;9.800;2023-04-24T03:28:48;10.00;99.90
20035;DHT22;10178;48.034;9.800;2023-04-24T03:31:13;10.00;99.90
20035;DHT22;10178;48.034;9.800;2023-04-24T03:33:40;10.00;99.90
20035;DHT22;10178;48.034;9.800;2023-04-24T03:36:06;10.10;99.90
20035;DHT22;10178;48.034;9.800;2023-04-24T03:38:32;10.20;99.90
20035;DHT22;10178;48.034;9.800;2023-04-24T03:40:57;10.00;99.90
20035;DHT22;10178;48.034;9.800;2023-04-24T03:43:23;9.90;99.90
20035;DHT22;10178;48.034;9.800;2023-04-24T03:45:49;9.80;99.90
20035;DHT22;10178;48.034;9.800;2023-04-24T03:48:14;10.00;99.90
20035;DHT22;10178;48.034;9.800;2023-04-24T03:50:40;9.70;99.90
20035;DHT22;10178;48.034;9.800;2023-04-24T03:53:06;9.70;99.90
20035;DHT22;10178;48.034;9.800;2023-04-24T03:55:32;10.00;99.90
20035;DHT22;10178;48.034;9.800;2023-04-24T03:57:57;9.90;99.90
20035;DHT22;10178;48.034;9.800;2023-04-24T04:00:23;9.90;99.90
20035;DHT22;10178;48.034;9.800;2023-04-24T04:02:49;9.90;99.90
20035;DHT22;10178;48.034;9.800;2023-04-24T04:05:14;9.90;99.90
20035;DHT22;10178;48.034;9.800;2023-04-24T04:07:40;9.80;99.90
20035;DHT22;10178;48.034;9.800;2023-04-24T04:10:06;9.60;99.90
20035;DHT22;10178;48.034;9.800;2023-04-24T04:12:32;9.50;99.90
20035;DHT22;10178;48.034;9.800;2023-04-24T04:14:58;9.30;99.90
20035;DHT22;10178;48.034;9.800;2023-04-24T04:17:24;9.60;99.90
20035;DHT22;10178;48.034;9.800;2023-04-24T04:19:49;9.60;99.90
20035;DHT22;10178;48.034;9.800;2023-04-24T04:22:16;9.60;99.90
20035;DHT22;10178;48.034;9.800;2023-04-24T04:24:41;9.80;99.90
20035;DHT22;10178;48.034;9.800;2023-04-24T04:27:09;10.00;99.90
20035;DHT22;10178;48.034;9.800;2023-04-24T04:29:34;10.00;99.90
20035;DHT22;10178;48.034;9.800;2023-04-24T04:32:01;9.90;99.90
20035;DHT22;10178;48.034;9.800;2023-04-24T04:34:27;10.00;99.90
20035;DHT22;10178;48.034;9.800;2023-04-24T04:36:53;10.00;99.90
20035;DHT22;10178;48.034;9.800;2023-04-24T04:39:18;10.10;99.90
20035;DHT22;10178;48.034;9.800;2023-04-24T04:41:45;10.20;99.90
20035;DHT22;10178;48.034;9.800;2023-04-24T04:44:14;10.20;99.90
20035;DHT22;10178;48.034;9.800;2023-04-24T04:46:40;10.10;99.90
20035;DHT22;10178;48.034;9.800;2023-04-24T04:49:07;10.20;99.90
20035;DHT22;10178;48.034;9.800;2023-04-24T04:51:34;10.10;99.90
20035;DHT22;10178;48.034;9.800;2023-04-24T04:53:59;10.50;99.90
20035;DHT22;10178;48.034;9.800;2023-04-24T04:56:26;9.90;99.90
20035;DHT22;10178;48.034;9.800;2023-04-24T04:58:52;9.90;99.90
20035;DHT22;10178;48.034;9.800;2023-04-24T05:01:17;10.00;99.90
20035;DHT22;10178;48.034;9.800;2023-04-24T05:03:43;10.40;99.90
20035;DHT22;10178;48.034;9.800;2023-04-24T05:06:09;10.30;99.90
20035;DHT22;10178;48.034;9.800;2023-04-24T05:08:34;10.10;99.90
20035;DHT22;10178;48.034;9.800;2023-04-24T05:11:00;10.20;99.90
20035;DHT22;10178;48.034;9.800;2023-04-24T05:13:26;10.40;99.90
20035;DHT22;10178;48.034;9.800;2023-04-24T05:15:51;10.50;99.90
20035;DHT22;10178;48.034;9.800;2023-04-24T05:18:17;10.30;99.90
20035;DHT22;10178;48.034;9.800;2023-04-24T05:20:42;9.90;99.90
20035;DHT22;10178;48.034;9.800;2023-04-24T05:23:09;10.10;99.90
20035;DHT22;10178;48.034;9.800;2023-04-24T05:25:35;10.00;99.90
20035;DHT22;10178;48.034;9.800;2023-04-24T05:28:01;9.80;99.90
20035;DHT22;10178;48.034;9.800;2023-04-24T05:30:28;9.70;99.90
20035;DHT22;10178;48.034;9.800;2023-04-24T05:32:53;9.80;99.90
20035;DHT22;10178;48.034;9.800;2023-04-24T05:35:19;9.70;99.90
20035;DHT22;10178;48.034;9.800;2023-04-24T05:37:45;9.80;99.90
20035;DHT22;10178;48.034;9.800;2023-04-24T05:40:10;9.80;99.90
20035;DHT22;10178;48.034;9.800;2023-04-24T05:42:36;9.90;99.90
20035;DHT22;10178;48.034;9.800;2023-04-24T05:45:02;9.90;99.90
20035;DHT22;10178;48.034;9.800;2023-04-24T05:47:28;9.80;99.90
20035;DHT22;10178;48.034;9.800;2023-04-24T05:49:53;9.70;99.90
20035;DHT22;10178;48.034;9.800;2023-04-24T05:52:19;10.20;99.90
20035;DHT22;10178;48.034;9.800;2023-04-24T05:54:45;10.20;99.90
20035;DHT22;10178;48.034;9.800;2023-04-24T05:57:11;10.30;99.90
20035;DHT22;10178;48.034;9.800;2023-04-24T05:59:37;10.10;99.90
20035;DHT22;10178;48.034;9.800;2023-04-24T06:02:06;10.30;99.90
20035;DHT22;10178;48.034;9.800;2023-04-24T06:04:32;10.50;99.90
20035;DHT22;10178;48.034;9.800;2023-04-24T06:06:58;10.70;99.90
20035;DHT22;10178;48.034;9.800;2023-04-24T06:09:25;10.40;99.90
20035;DHT22;10178;48.034;9.800;2023-04-24T06:11:51;10.00;99.90
20035;DHT22;10178;48.034;9.800;2023-04-24T06:14:19;9.80;99.90
20035;DHT22;10178;48.034;9.800;2023-04-24T06:16:44;9.90;99.90
20035;DHT22;10178;48.034;9.800;2023-04-24T06:19:10;10.30;99.90
20035;DHT22;10178;48.034;9.800;2023-04-24T06:21:36;10.30;99.90
20035;DHT22;10178;48.034;9.800;2023-04-24T06:24:03;10.50;99.90
20035;DHT22;10178;48.034;9.800;2023-04-24T06:26:29;10.60;99.90
20035;DHT22;10178;48.034;9.800;2023-04-24T06:28:55;10.50;99.90
20035;DHT22;10178;48.034;9.800;2023-04-24T06:31:21;10.70;99.90
20035;DHT22;10178;48.034;9.800;2023-04-24T06:33:47;10.80;99.90
20035;DHT22;10178;48.034;9.800;2023-04-24T06:36:13;10.80;99.90
20035;DHT22;10178;48.034;9.800;2023-04-24T06:38:38;11.10;99.90
20035;DHT22;10178;48.034;9.800;2023-04-24T06:41:04;11.40;99.90
20035;DHT22;10178;48.034;9.800;2023-04-24T06:43:31;11.40;99.90
20035;DHT22;10178;48.034;9.800;2023-04-24T06:45:57;11.30;99.90
20035;DHT22;10178;48.034;9.800;2023-04-24T06:48:24;11.30;99.90
20035;DHT22;10178;48.034;9.800;2023-04-24T06:50:50;11.30;99.90
20035;DHT22;10178;48.034;9.800;2023-04-24T06:53:16;11.30;99.90
20035;DHT22;10178;48.034;9.800;2023-04-24T06:55:42;11.40;99.90
20035;DHT22;10178;48.034;9.800;2023-04-24T06:58:09;11.40;99.90
20035;DHT22;10178;48.034;9.800;2023-04-24T07:00:34;11.50;99.90
20035;DHT22;10178;48.034;9.800;2023-04-24T07:03:00;11.50;99.90
20035;DHT22;10178;48.034;9.800;2023-04-24T07:05:25;11.40;99.90
20035;DHT22;10178;48.034;9.800;2023-04-24T07:07:51;11.50;99.90
20035;DHT22;10178;48.034;9.800;2023-04-24T07:10:17;11.70;99.90
20035;DHT22;10178;48.034;9.800;2023-04-24T07:12:43;11.60;99.90
20035;DHT22;10178;48.034;9.800;2023-04-24T07:15:09;11.80;99.90
20035;DHT22;10178;48.034;9.800;2023-04-24T07:17:35;12.10;99.90
20035;DHT22;10178;48.034;9.800;2023-04-24T07:20:04;12.40;99.90
20035;DHT22;10178;48.034;9.800;2023-04-24T07:22:30;12.50;99.90
20035;DHT22;10178;48.034;9.800;2023-04-24T07:24:55;12.70;99.90
20035;DHT22;10178;48.034;9.800;2023-04-24T07:27:21;12.60;99.90
20035;DHT22;10178;48.034;9.800;2023-04-24T07:29:46;12.60;99.90
20035;DHT22;10178;48.034;9.800;2023-04-24T07:32:12;12.60;99.90
20035;DHT22;10178;48.034;9.800;2023-04-24T07:34:38;12.70;99.90
20035;DHT22;10178;48.034;9.800;2023-04-24T07:37:03;12.70;99.90
20035;DHT22;10178;48.034;9.800;2023-04-24T07:39:29;12.80;99.90
20035;DHT22;10178;48.034;9.800;2023-04-24T07:41:55;12.70;99.90
20035;DHT22;10178;48.034;9.800;2023-04-24T07:44:20;12.70;99.90
20035;DHT22;10178;48.034;9.800;2023-04-24T07:46:47;12.70;99.90
20035;DHT22;10178;48.034;9.800;2023-04-24T07:49:12;12.70;99.90
20035;DHT22;10178;48.034;9.800;2023-04-24T07:51:38;12.60;99.90
20035;DHT22;10178;48.034;9.800;2023-04-24T07:54:05;12.60;99.90
20035;DHT22;10178;48.034;9.800;2023-04-24T07:56:33;12.60;99.90
20035;DHT22;10178;48.034;9.800;2023-04-24T07:58:59;12.60;99.90
20035;DHT22;10178;48.034;9.800;2023-04-24T08:01:26;12.60;99.90
20035;DHT22;10178;48.034;9.800;2023-04-24T08:03:52;12.30;99.90
20035;DHT22;10178;48.034;9.800;2023-04-24T08:06:17;12.20;99.90
20035;DHT22;10178;48.034;9.800;2023-04-24T08:08:43;12.30;99.90
20035;DHT22;10178;48.034;9.800;2023-04-24T08:11:09;12.40;99.90
20035;DHT22;10178;48.034;9.800;2023-04-24T08:13:34;12.40;99.90
20035;DHT22;10178;48.034;9.800;2023-04-24T08:16:00;12.40;99.90
20035;DHT22;10178;48.034;9.800;2023-04-24T08:18:26;12.40;99.90
20035;DHT22;10178;48.034;9.800;2023-04-24T08:20:51;12.30;99.90
20035;DHT22;10178;48.034;9.800;2023-04-24T08:23:17;12.10;99.90
20035;DHT22;10178;48.034;9.800;2023-04-24T08:25:43;12.00;99.90
20035;DHT22;10178;48.034;9.800;2023-04-24T08:28:09;11.80;99.90
20035;DHT22;10178;48.034;9.800;2023-04-24T08:30:36;11.90;99.90
20035;DHT22;10178;48.034;9.800;2023-04-24T08:33:02;11.80;99.90
20035;DHT22;10178;48.034;9.800;2023-04-24T08:35:28;12.00;99.90
20035;DHT22;10178;48.034;9.800;2023-04-24T08:37:53;12.00;99.90
20035;DHT22;10178;48.034;9.800;2023-04-24T08:40:23;11.80;99.90
20035;DHT22;10178;48.034;9.800;2023-04-24T08:42:54;11.60;99.90
20035;DHT22;10178;48.034;9.800;2023-04-24T08:45:20;11.60;99.90
20035;DHT22;10178;48.034;9.800;2023-04-24T08:47:47;10.70;99.90
20035;DHT22;10178;48.034;9.800;2023-04-24T08:50:14;9.80;99.90
20035;DHT22;10178;48.034;9.800;2023-04-24T08:52:42;9.70;99.90
20035;DHT22;10178;48.034;9.800;2023-04-24T08:55:08;9.90;99.90
20035;DHT22;10178;48.034;9.800;2023-04-24T08:57:33;9.60;99.90
20035;DHT22;10178;48.034;9.800;2023-04-24T09:00:01;9.70;99.90
20035;DHT22;10178;48.034;9.800;2023-04-24T09:02:27;9.70;99.90
20035;DHT22;10178;48.034;9.800;2023-04-24T09:04:56;9.90;99.90
20035;DHT22;10178;48.034;9.800;2023-04-24T09:07:24;10.00;99.90
20035;DHT22;10178;48.034;9.800;2023-04-24T09:09:51;10.20;99.90
20035;DHT22;10178;48.034;9.800;2023-04-24T09:12:17;10.40;99.90
20035;DHT22;10178;48.034;9.800;2023-04-24T09:14:44;10.90;99.90
20035;DHT22;10178;48.034;9.800;2023-04-24T09:17:11;11.40;99.90
20035;DHT22;10178;48.034;9.800;2023-04-24T09:19:37;11.70;99.90
20035;DHT22;10178;48.034;9.800;2023-04-24T09:22:07;12.00;99.90
20035;DHT22;10178;48.034;9.800;2023-04-24T09:24:34;12.30;99.90
20035;DHT22;10178;48.034;9.800;2023-04-24T09:27:00;12.40;99.90
20035;DHT22;10178;48.034;9.800;2023-04-24T09:29:29;12.40;99.90
20035;DHT22;10178;48.034;9.800;2023-04-24T09:31:55;12.50;99.90
20035;DHT22;10178;48.034;9.800;2023-04-24T09:34:22;12.40;99.90
20035;DHT22;10178;48.034;9.800;2023-04-24T09:36:49;12.30;99.90
20035;DHT22;10178;48.034;9.800;2023-04-24T09:39:16;12.40;99.90
20035;DHT22;10178;48.034;9.800;2023-04-24T09:41:55;12.50;99.90
20035;DHT22;10178;48.034;9.800;2023-04-24T09:44:26;12.40;99.90
20035;DHT22;10178;48.034;9.800;2023-04-24T09:46:56;12.40;99.90
20035;DHT22;10178;48.034;9.800;2023-04-24T09:49:27;12.30;99.90
20035;DHT22;10178;48.034;9.800;2023-04-24T09:52:09;12.20;99.90
20035;DHT22;10178;48.034;9.800;2023-04-24T09:54:35;12.10;99.90
20035;DHT22;10178;48.034;9.800;2023-04-24T09:57:04;12.00;99.90
20035;DHT22;10178;48.034;9.800;2023-04-24T09:59:32;11.90;99.90
20035;DHT22;10178;48.034;9.800;2023-04-24T10:01:59;12.00;99.90
20035;DHT22;10178;48.034;9.800;2023-04-24T10:04:27;11.90;99.90
20035;DHT22;10178;48.034;9.800;2023-04-24T10:06:55;11.90;99.90
20035;DHT22;10178;48.034;9.800;2023-04-24T10:09:24;11.90;99.90
20035;DHT22;10178;48.034;9.800;2023-04-24T10:11:51;12.00;99.90
20035;DHT22;10178;48.034;9.800;2023-04-24T10:14:20;12.10;99.90
20035;DHT22;10178;48.034;9.800;2023-04-24T10:16:47;12.10;99.90
20035;DHT22;10178;48.034;9.800;2023-04-24T10:19:14;12.00;99.90
20035;DHT22;10178;48.034;9.800;2023-04-24T10:21:41;11.90;99.90
20035;DHT22;10178;48.034;9.800;2023-04-24T10:24:08;11.90;99.90
20035;DHT22;10178;48.034;9.800;2023-04-24T10:26:35;12.00;99.90
20035;DHT22;10178;48.034;9.800;2023-04-24T10:29:04;12.00;99.90
20035;DHT22;10178;48.034;9.800;2023-04-24T10:31:31;12.10;99.90
20035;DHT22;10178;48.034;9.800;2023-04-24T10:34:00;12.10;99.90
20035;DHT22;10178;48.034;9.800;2023-04-24T10:36:27;12.10;99.90
20035;DHT22;10178;48.034;9.800;2023-04-24T10:38:55;12.10;99.90
20035;DHT22;10178;48.034;9.800;2023-04-24T10:41:21;12.20;99.90
20035;DHT22;10178;48.034;9.800;2023-04-24T10:44:06;12.10;99.90
20035;DHT22;10178;48.034;9.800;2023-04-24T10:46:32;12.30;99.90
20035;DHT22;10178;48.034;9.800;2023-04-24T10:48:58;12.30;99.90
20035;DHT22;10178;48.034;9.800;2023-04-24T10:51:26;12.40;99.90
20035;DHT22;10178;48.034;9.800;2023-04-24T10:56:53;12.70;99.90
20035;DHT22;10178;48.034;9.800;2023-04-24T10:59:27;12.90;99.90
20035;DHT22;10178;48.034;9.800;2023-04-24T11:01:53;13.10;99.90
20035;DHT22;10178;48.034;9.800;2023-04-24T11:04:30;13.20;99.90
20035;DHT22;10178;48.034;9.800;2023-04-24T11:06:57;13.20;99.90
20035;DHT22;10178;48.034;9.800;2023-04-24T11:09:26;12.90;99.90
20035;DHT22;10178;48.034;9.800;2023-04-24T11:12:06;12.60;99.90
20035;DHT22;10178;48.034;9.800;2023-04-24T11:17:38;12.30;99.90
20035;DHT22;10178;48.034;9.800;2023-04-24T11:20:10;12.30;99.90
20035;DHT22;10178;48.034;9.800;2023-04-24T11:22:37;12.30;99.90
20035;DHT22;10178;48.034;9.800;2023-04-24T11:25:06;12.40;99.90
20035;DHT22;10178;48.034;9.800;2023-04-24T11:27:42;12.30;99.90
20035;DHT22;10178;48.034;9.800;2023-04-24T11:30:08;12.40;99.90
20035;DHT22;10178;48.034;9.800;2023-04-24T11:32:41;12.40;99.90
20035;DHT22;10178;48.034;9.800;2023-04-24T11:35:22;12.40;99.90
20035;DHT22;10178;48.034;9.800;2023-04-24T11:37:53;12.30;99.90
20035;DHT22;10178;48.034;9.800;2023-04-24T11:40:21;12.30;99.90
20035;DHT22;10178;48.034;9.800;2023-04-24T11:42:52;12.40;99.90
20035;DHT22;10178;48.034;9.800;2023-04-24T11:45:18;12.50;99.90
20035;DHT22;10178;48.034;9.800;2023-04-24T11:47:45;12.50;99.90
20035;DHT22;10178;48.034;9.800;2023-04-24T11:50:15;12.50;99.90
20035;DHT22;10178;48.034;9.800;2023-04-24T11:52:43;12.50;99.90
20035;DHT22;10178;48.034;9.800;2023-04-24T11:57:59;12.60;99.90
20035;DHT22;10178;48.034;9.800;2023-04-24T12:00:27;12.70;99.90
20035;DHT22;10178;48.034;9.800;2023-04-24T12:03:08;12.70;99.90
20035;DHT22;10178;48.034;9.800;2023-04-24T12:05:34;12.70;99.90
20035;DHT22;10178;48.034;9.800;2023-04-24T12:08:02;12.70;99.90
20035;DHT22;10178;48.034;9.800;2023-04-24T12:10:29;12.70;99.90
20035;DHT22;10178;48.034;9.800;2023-04-24T12:12:56;12.70;99.90
20035;DHT22;10178;48.034;9.800;2023-04-24T12:15:23;12.80;99.90
20035;DHT22;10178;48.034;9.800;2023-04-24T12:17:51;12.70;99.90
20035;DHT22;10178;48.034;9.800;2023-04-24T12:20:22;12.70;99.90
20035;DHT22;10178;48.034;9.800;2023-04-24T12:22:53;12.70;99.90
20035;DHT22;10178;48.034;9.800;2023-04-24T12:25:42;12.60;99.90
20035;DHT22;10178;48.034;9.800;2023-04-24T12:28:10;12.60;99.90
20035;DHT22;10178;48.034;9.800;2023-04-24T12:30:46;13.00;99.90
20035;DHT22;10178;48.034;9.800;2023-04-24T12:33:18;13.50;99.90
20035;DHT22;10178;48.034;9.800;2023-04-24T12:35:45;13.80;99.90
20035;DHT22;10178;48.034;9.800;2023-04-24T12:38:15;13.80;99.90
20035;DHT22;10178;48.034;9.800;2023-04-24T12:40:42;13.90;99.90
20035;DHT22;10178;48.034;9.800;2023-04-24T12:43:18;14.10;99.90
20035;DHT22;10178;48.034;9.800;2023-04-24T12:45:44;14.20;99.90
20035;DHT22;10178;48.034;9.800;2023-04-24T12:48:11;14.30;99.90
20035;DHT22;10178;48.034;9.800;2023-04-24T12:50:37;14.20;99.90
20035;DHT22;10178;48.034;9.800;2023-04-24T12:53:03;14.30;99.90
20035;DHT22;10178;48.034;9.800;2023-04-24T12:55:28;14.30;99.90
20035;DHT22;10178;48.034;9.800;2023-04-24T12:57:54;14.20;99.90
20035;DHT22;10178;48.034;9.800;2023-04-24T13:00:21;14.20;99.90
20035;DHT22;10178;48.034;9.800;2023-04-24T13:02:47;14.20;99.90
20035;DHT22;10178;48.034;9.800;2023-04-24T13:05:13;14.20;99.90
20035;DHT22;10178;48.034;9.800;2023-04-24T13:07:39;14.30;99.90
20035;DHT22;10178;48.034;9.800;2023-04-24T13:10:05;14.30;99.90
20035;DHT22;10178;48.034;9.800;2023-04-24T13:12:31;14.40;99.90
20035;DHT22;10178;48.034;9.800;2023-04-24T13:14:57;14.40;99.90
20035;DHT22;10178;48.034;9.800;2023-04-24T13:17:24;14.40;99.90
20035;DHT22;10178;48.034;9.800;2023-04-24T13:19:51;14.40;99.90
20035;DHT22;10178;48.034;9.800;2023-04-24T13:22:17;14.40;99.90
20035;DHT22;10178;48.034;9.800;2023-04-24T13:24:44;14.50;99.90
20035;DHT22;10178;48.034;9.800;2023-04-24T13:27:10;14.30;99.90
20035;DHT22;10178;48.034;9.800;2023-04-24T13:29:37;14.20;99.90
20035;DHT22;10178;48.034;9.800;2023-04-24T13:32:02;14.00;99.90
20035;DHT22;10178;48.034;9.800;2023-04-24T13:34:28;14.00;99.90
20035;DHT22;10178;48.034;9.800;2023-04-24T13:36:55;13.80;99.90
20035;DHT22;10178;48.034;9.800;2023-04-24T13:39:22;13.80;99.90
20035;DHT22;10178;48.034;9.800;2023-04-24T13:41:48;13.80;99.90
20035;DHT22;10178;48.034;9.800;2023-04-24T13:44:15;13.80;99.90
20035;DHT22;10178;48.034;9.800;2023-04-24T13:46:42;13.90;99.90
20035;DHT22;10178;48.034;9.800;2023-04-24T13:49:09;14.00;99.90
20035;DHT22;10178;48.034;9.800;2023-04-24T13:51:35;14.00;99.90
20035;DHT22;10178;48.034;9.800;2023-04-24T13:54:01;14.10;99.90
20035;DHT22;10178;48.034;9.800;2023-04-24T13:56:27;14.10;99.90
20035;DHT22;10178;48.034;9.800;2023-04-24T13:58:52;14.10;99.90
20035;DHT22;10178;48.034;9.800;2023-04-24T14:01:19;14.20;99.90
20035;DHT22;10178;48.034;9.800;2023-04-24T14:03:49;14.20;99.90
20035;DHT22;10178;48.034;9.800;2023-04-24T14:06:15;14.00;99.90
20035;DHT22;10178;48.034;9.800;2023-04-24T14:08:40;13.90;99.90
20035;DHT22;10178;48.034;9.800;2023-04-24T14:11:06;13.90;99.90
20035;DHT22;10178;48.034;9.800;2023-04-24T14:13:32;14.00;99.90
20035;DHT22;10178;48.034;9.800;2023-04-24T14:15:58;14.00;99.90
20035;DHT22;10178;48.034;9.800;2023-04-24T14:18:23;13.80;99.90
20035;DHT22;10178;48.034;9.800;2023-04-24T14:20:49;13.70;99.90
20035;DHT22;10178;48.034;9.800;2023-04-24T14:23:15;13.60;99.90
20035;DHT22;10178;48.034;9.800;2023-04-24T14:25:41;13.80;99.90
20035;DHT22;10178;48.034;9.800;2023-04-24T14:28:06;13.90;99.90
20035;DHT22;10178;48.034;9.800;2023-04-24T14:30:32;14.00;99.90
20035;DHT22;10178;48.034;9.800;2023-04-24T14:32:58;13.90;99.90
20035;DHT22;10178;48.034;9.800;2023-04-24T14:35:24;13.70;99.90
20035;DHT22;10178;48.034;9.800;2023-04-24T14:37:49;13.60;99.90
20035;DHT22;10178;48.034;9.800;2023-04-24T14:40:15;13.50;99.90
20035;DHT22;10178;48.034;9.800;2023-04-24T14:42:41;13.40;99.90
20035;DHT22;10178;48.034;9.800;2023-04-24T14:45:06;13.30;99.90
20035;DHT22;10178;48.034;9.800;2023-04-24T14:47:33;13.30;99.90
20035;DHT22;10178;48.034;9.800;2023-04-24T14:49:59;13.50;99.90
20035;DHT22;10178;48.034;9.800;2023-04-24T14:52:25;13.90;99.90
20035;DHT22;10178;48.034;9.800;2023-04-24T14:54:50;14.50;99.90
20035;DHT22;10178;48.034;9.800;2023-04-24T14:57:16;14.80;99.90
20035;DHT22;10178;48.034;9.800;2023-04-24T14:59:42;14.90;99.90
20035;DHT22;10178;48.034;9.800;2023-04-24T15:02:08;15.20;99.90
20035;DHT22;10178;48.034;9.800;2023-04-24T15:04:33;15.30;99.90
20035;DHT22;10178;48.034;9.800;2023-04-24T15:06:59;15.30;99.90
20035;DHT22;10178;48.034;9.800;2023-04-24T15:09:24;15.30;99.90
20035;DHT22;10178;48.034;9.800;2023-04-24T15:11:51;15.30;99.90
20035;DHT22;10178;48.034;9.800;2023-04-24T15:14:17;15.40;99.90
20035;DHT22;10178;48.034;9.800;2023-04-24T15:16:43;15.40;99.90
20035;DHT22;10178;48.034;9.800;2023-04-24T15:19:10;15.40;99.90
20035;DHT22;10178;48.034;9.800;2023-04-24T15:21:36;15.40;99.90
20035;DHT22;10178;48.034;9.800;2023-04-24T15:24:03;15.40;99.90
20035;DHT22;10178;48.034;9.800;2023-04-24T15:26:29;15.50;99.90
20035;DHT22;10178;48.034;9.800;2023-04-24T15:28:55;15.50;99.90
20035;DHT22;10178;48.034;9.800;2023-04-24T15:31:20;15.50;99.90
20035;DHT22;10178;48.034;9.800;2023-04-24T15:33:50;15.40;99.90
20035;DHT22;10178;48.034;9.800;2023-04-24T15:36:17;15.30;99.90
20035;DHT22;10178;48.034;9.800;2023-04-24T15:38:43;15.20;99.90